Time;durP1;ratioP1;P1;durP2;ratioP2;P2;SDS_P1;SDS_P2;PMS_P1;PMS_P2;Temp;Humidity;BMP_temperature;BMP_pressure;BME280_temperature;BME280_humidity;BME280_pressure;Samples;Min_cycle;Max_cycle;Signal;HPM_P1;HPM_P2
2021/01/26 00:02:09;;;;;;;16.40;11.20;;;3.00;1.00;;;;;;5095683;28;20178;-68
2021/01/26 00:04:35;;;;;;;16.20;10.40;;;2.90;1.00;;;;;;5095189;28;20660;-68
2021/01/26 00:07:00;;;;;;;18.83;11.23;;;3.10;1.00;;;;;;5095017;28;20190;-68
2021/01/26 00:09:26;;;;;;;19.57;10.83;;;3.10;1.00;;;;;;5095037;28;20187;-68
2021/01/26 00:11:51;;;;;;;19.57;12.80;;;3.00;1.00;;;;;;5095184;28;20171;-68
2021/01/26 00:14:17;;;;;;;24.60;11.60;;;3.30;1.00;;;;;;5095176;28;20163;-68
2021/01/26 00:16:42;;;;;;;14.33;9.80;;;3.10;1.00;;;;;;5095081;28;20168;-68
2021/01/26 00:19:08;;;;;;;17.70;10.70;;;3.20;99.90;;;;;;5095034;28;20646;-68
2021/01/26 00:21:33;;;;;;;19.47;9.70;;;3.30;99.90;;;;;;5094668;28;20176;-67
2021/01/26 00:23:59;;;;;;;26.00;12.03;;;3.10;1.00;;;;;;5094963;28;20489;-68
2021/01/26 00:26:24;;;;;;;17.10;10.10;;;3.30;1.00;;;;;;5094855;28;20536;-68
2021/01/26 00:28:50;;;;;;;28.47;10.60;;;3.30;99.90;;;;;;5094780;28;20690;-67
2021/01/26 00:31:15;;;;;;;31.17;11.93;;;3.30;99.90;;;;;;5094847;28;20199;-68
2021/01/26 00:33:41;;;;;;;15.40;10.27;;;3.40;99.90;;;;;;5095017;28;20640;-68
2021/01/26 00:36:07;;;;;;;18.20;11.60;;;3.30;99.90;;;;;;5095444;28;20284;-68
2021/01/26 00:38:32;;;;;;;14.10;9.27;;;3.40;99.90;;;;;;5095561;28;20180;-68
2021/01/26 00:40:58;;;;;;;17.93;10.40;;;3.40;99.90;;;;;;5095028;28;20187;-68
2021/01/26 00:43:23;;;;;;;19.57;10.13;;;3.20;99.90;;;;;;5094522;28;20172;-68
2021/01/26 00:45:49;;;;;;;23.67;12.30;;;3.30;99.90;;;;;;5094586;28;20175;-68
2021/01/26 00:48:17;;;;;;;12.73;8.80;;;3.50;99.90;;;;;;5094664;28;20674;-68
2021/01/26 00:50:43;;;;;;;15.40;9.00;;;3.30;99.90;;;;;;5094399;28;20183;-68
2021/01/26 00:53:10;;;;;;;19.00;11.90;;;3.40;1.00;;;;;;5094439;28;20168;-67
2021/01/26 00:55:35;;;;;;;16.95;9.07;;;3.40;99.90;;;;;;5094305;28;20168;-68
2021/01/26 00:58:01;;;;;;;22.97;10.67;;;3.50;99.90;;;;;;5094306;28;20168;-68
2021/01/26 01:00:35;;;;;;;20.53;10.10;;;3.60;99.90;;;;;;5094529;28;20671;-68
2021/01/26 01:03:01;;;;;;;13.35;7.95;;;3.30;99.90;;;;;;5094318;28;20156;-68
2021/01/26 01:05:27;;;;;;;27.92;10.15;;;3.30;99.90;;;;;;5094135;28;20539;-68
2021/01/26 01:07:53;;;;;;;15.37;10.03;;;3.40;99.90;;;;;;5093967;28;20209;-68
2021/01/26 01:10:23;;;;;;;13.57;8.85;;;3.50;99.90;;;;;;5094304;28;20204;-68
2021/01/26 01:12:49;;;;;;;21.70;9.70;;;3.40;99.90;;;;;;5094015;28;20163;-68
2021/01/26 01:15:16;;;;;;;18.70;10.77;;;3.40;99.90;;;;;;5093965;28;20163;-68
2021/01/26 01:17:42;;;;;;;18.58;10.23;;;3.40;99.90;;;;;;5093838;28;20164;-68
2021/01/26 01:20:09;;;;;;;21.52;10.93;;;3.60;99.90;;;;;;5094119;28;20191;-68
2021/01/26 01:22:35;;;;;;;13.48;7.57;;;3.60;99.90;;;;;;5093854;28;20243;-68
2021/01/26 01:25:01;;;;;;;19.90;10.17;;;3.40;99.90;;;;;;5093792;28;20792;-68
2021/01/26 01:27:26;;;;;;;19.43;10.07;;;3.40;99.90;;;;;;5093671;28;20250;-68
2021/01/26 01:29:52;;;;;;;12.13;7.97;;;3.40;99.90;;;;;;5093666;28;20202;-68
2021/01/26 01:32:18;;;;;;;16.43;9.33;;;3.30;99.90;;;;;;5093670;28;20609;-68
2021/01/26 01:34:43;;;;;;;13.50;9.23;;;3.30;99.90;;;;;;5093170;28;20166;-68
2021/01/26 01:37:09;;;;;;;19.63;8.60;;;3.40;99.90;;;;;;5094360;28;20174;-68
2021/01/26 01:39:35;;;;;;;15.87;9.43;;;3.30;1.00;;;;;;5093892;28;20312;-68
2021/01/26 01:42:08;;;;;;;16.03;9.13;;;3.50;99.90;;;;;;5093756;28;20492;-68
2021/01/26 01:44:35;;;;;;;15.05;9.18;;;3.30;1.00;;;;;;5093752;28;20635;-69
2021/01/26 01:47:02;;;;;;;14.82;8.48;;;3.50;1.00;;;;;;5093710;28;20582;-69
2021/01/26 01:49:33;;;;;;;17.30;9.13;;;3.40;1.00;;;;;;5093198;28;20187;-68
2021/01/26 01:51:59;;;;;;;17.10;9.35;;;3.40;1.00;;;;;;5093677;28;20152;-68
2021/01/26 01:54:32;;;;;;;13.00;7.15;;;3.40;1.00;;;;;;5093352;28;20187;-68
2021/01/26 01:57:08;;;;;;;18.33;9.45;;;3.20;1.00;;;;;;5093560;28;20173;-68
2021/01/26 01:59:42;;;;;;;12.40;8.40;;;3.40;1.00;;;;;;5093406;28;20197;-68
2021/01/26 02:02:09;;;;;;;14.35;8.90;;;3.40;1.00;;;;;;5093499;28;20678;-69
2021/01/26 02:04:36;;;;;;;15.23;8.80;;;3.20;99.90;;;;;;5093406;28;20182;-68
2021/01/26 02:07:04;;;;;;;13.13;8.55;;;3.20;99.90;;;;;;5091738;28;20273;-68
2021/01/26 02:09:34;;;;;;;19.05;8.18;;;3.20;99.90;;;;;;5092908;28;20195;-68
2021/01/26 02:11:59;;;;;;;16.05;8.18;;;3.10;99.90;;;;;;5093065;28;20251;-68
2021/01/26 02:14:29;;;;;;;14.20;9.23;;;2.80;9.10;;;;;;5093204;28;20599;-68
2021/01/26 02:16:55;;;;;;;10.30;8.15;;;2.80;99.90;;;;;;5093084;28;20865;-68
2021/01/26 02:20:04;;;;;;;17.13;9.63;;;2.80;1.00;;;;;;5092945;28;20171;-68
2021/01/26 02:22:42;;;;;;;17.23;9.93;;;2.90;1.00;;;;;;5093021;28;20269;-68
2021/01/26 02:25:22;;;;;;;17.75;9.63;;;2.90;99.90;;;;;;5093206;28;20156;-68
2021/01/26 02:28:15;;;;;;;16.08;10.18;;;2.90;97.80;;;;;;5092912;28;20563;-68
2021/01/26 02:30:44;;;;;;;14.82;8.60;;;3.10;99.90;;;;;;5092914;28;20232;-68
2021/01/26 02:33:48;;;;;;;16.40;9.13;;;3.10;58.20;;;;;;5092848;28;20199;-68
2021/01/26 02:36:25;;;;;;;13.77;8.48;;;3.10;1.00;;;;;;5093162;28;20284;-68
2021/01/26 02:39:12;;;;;;;11.48;7.38;;;3.20;99.90;;;;;;5092892;28;20174;-68
2021/01/26 02:41:44;;;;;;;17.58;8.35;;;3.20;99.90;;;;;;5092896;28;20167;-68
2021/01/26 02:44:43;;;;;;;13.48;8.40;;;3.20;1.00;;;;;;5093136;28;20152;-68
2021/01/26 02:47:17;;;;;;;13.43;8.13;;;3.20;1.00;;;;;;5096807;28;20175;-68
2021/01/26 02:49:48;;;;;;;19.30;9.10;;;3.30;99.90;;;;;;5096627;28;20206;-68
2021/01/26 02:52:36;;;;;;;9.23;6.72;;;3.30;99.90;;;;;;5097006;28;20152;-68
2021/01/26 02:55:09;;;;;;;13.45;7.63;;;3.30;99.90;;;;;;5096780;28;20204;-68
2021/01/26 02:57:54;;;;;;;18.60;8.38;;;3.40;99.90;;;;;;5096893;28;20175;-68
2021/01/26 03:00:24;;;;;;;16.52;6.88;;;3.40;99.90;;;;;;5096516;28;20559;-68
2021/01/26 03:03:18;;;;;;;12.45;8.65;;;3.30;7.40;;;;;;5096466;28;20160;-68
2021/01/26 03:06:02;;;;;;;15.40;7.90;;;3.40;99.90;;;;;;5096829;28;20156;-68
2021/01/26 03:08:43;;;;;;;16.45;8.13;;;3.30;99.90;;;;;;5096250;28;20199;-68
2021/01/26 03:11:23;;;;;;;16.70;8.82;;;3.30;99.90;;;;;;5096643;28;20243;-68
2021/01/26 03:13:55;;;;;;;17.77;8.35;;;3.50;24.80;;;;;;5096526;28;20182;-69
2021/01/26 03:16:24;;;;;;;11.50;4.47;;;3.40;1.00;;;;;;5096826;28;20665;-68
2021/01/26 03:18:59;;;;;;;11.10;7.57;;;3.30;99.90;;;;;;5096288;28;20509;-68
2021/01/26 03:21:27;;;;;;;327.63;226.15;;;3.30;99.90;;;;;;5094852;28;20194;-69
2021/01/26 03:24:03;;;;;;;15.75;7.70;;;3.40;99.90;;;;;;5096497;28;20573;-68
2021/01/26 03:26:28;;;;;;;21.10;7.38;;;3.50;99.90;;;;;;5096235;28;20167;-68
2021/01/26 03:29:00;;;;;;;14.30;7.63;;;3.70;1.00;;;;;;5096097;28;20198;-68
2021/01/26 03:31:42;;;;;;;7.82;6.05;;;3.40;57.30;;;;;;5096073;28;20536;-68
2021/01/26 03:34:08;;;;;;;10.43;6.10;;;3.30;99.90;;;;;;5096377;28;20160;-68
2021/01/26 03:36:35;;;;;;;10.80;6.87;;;3.20;99.90;;;;;;5095929;28;20167;-68
2021/01/26 03:39:01;;;;;;;15.75;5.10;;;3.40;99.90;;;;;;5096214;28;20186;-69
2021/01/26 03:41:27;;;;;;;12.53;5.83;;;3.30;99.90;;;;;;5095828;28;20201;-68
2021/01/26 03:43:52;;;;;;;8.70;5.70;;;3.40;99.90;;;;;;5096090;28;20171;-68
2021/01/26 03:46:39;;;;;;;14.47;6.60;;;3.50;94.00;;;;;;5095898;28;20384;-68
2021/01/26 03:49:15;;;;;;;11.35;3.80;;;3.40;99.90;;;;;;5095596;28;20286;-69
2021/01/26 03:51:55;;;;;;;18.52;7.00;;;3.40;1.00;;;;;;5095753;28;20151;-68
2021/01/26 03:54:37;;;;;;;15.05;5.85;;;3.40;1.00;;;;;;5095768;28;20213;-68
2021/01/26 03:57:22;;;;;;;10.63;6.32;;;3.50;1.00;;;;;;5095217;28;20156;-67
2021/01/26 04:00:21;;;;;;;8.32;6.30;;;3.40;1.00;;;;;;5095145;28;20256;-69
2021/01/26 04:03:15;;;;;;;12.30;5.10;;;3.40;1.00;;;;;;5095662;28;20705;-68
2021/01/26 04:05:59;;;;;;;15.45;7.28;;;3.40;1.00;;;;;;5095274;28;20593;-69
2021/01/26 04:08:44;;;;;;;6.72;3.10;;;3.50;1.00;;;;;;5095082;28;20206;-69
2021/01/26 04:11:30;;;;;;;15.13;6.97;;;3.50;1.00;;;;;;5095210;28;20191;-69
2021/01/26 04:13:58;;;;;;;13.55;5.00;;;3.50;1.00;;;;;;5095208;28;20159;-69
2021/01/26 04:16:30;;;;;;;9.70;5.07;;;3.50;1.00;;;;;;5095398;28;20622;-69
2021/01/26 04:18:58;;;;;;;17.35;6.63;;;3.50;1.00;;;;;;5095208;28;20254;-69
2021/01/26 04:21:24;;;;;;;9.77;6.93;;;3.50;1.00;;;;;;5094792;28;20691;-68
2021/01/26 04:23:55;;;;;;;15.07;6.50;;;3.50;1.00;;;;;;5094916;28;20179;-67
2021/01/26 04:26:22;;;;;;;13.35;5.90;;;3.40;99.90;;;;;;5094839;28;20627;-69
2021/01/26 04:28:48;;;;;;;12.90;6.75;;;3.30;69.40;;;;;;5094548;28;20237;-69
2021/01/26 04:31:16;;;;;;;16.70;6.63;;;3.40;99.90;;;;;;5094547;28;20211;-69
2021/01/26 04:33:42;;;;;;;11.57;6.60;;;3.30;99.90;;;;;;5094531;28;20164;-68
2021/01/26 04:36:10;;;;;;;10.52;6.97;;;3.20;1.00;;;;;;5094484;28;20640;-69
2021/01/26 04:38:36;;;;;;;18.85;7.13;;;3.20;22.40;;;;;;5094593;28;20269;-68
2021/01/26 04:41:11;;;;;;;20.77;7.57;;;3.40;1.00;;;;;;5094356;28;20226;-69
2021/01/26 04:43:59;;;;;;;10.93;6.43;;;3.20;99.90;;;;;;5094574;28;20371;-69
2021/01/26 04:46:37;;;;;;;14.45;7.78;;;3.10;1.00;;;;;;5094415;28;20171;-69
2021/01/26 04:49:20;;;;;;;12.07;5.22;;;3.20;1.00;;;;;;5094677;28;20179;-69
2021/01/26 04:52:22;;;;;;;16.80;6.95;;;3.20;93.70;;;;;;5094519;28;20155;-69
2021/01/26 04:54:59;;;;;;;8.00;4.38;;;3.40;99.90;;;;;;5093916;28;20194;-69
2021/01/26 04:57:44;;;;;;;14.25;6.22;;;3.10;33.70;;;;;;5094321;28;20179;-69
2021/01/26 05:00:27;;;;;;;13.10;6.72;;;3.00;1.00;;;;;;5093986;28;20277;-69
2021/01/26 05:03:28;;;;;;;16.40;7.60;;;3.00;99.90;;;;;;5094233;28;20155;-68
2021/01/26 05:05:59;;;;;;;21.02;7.55;;;3.00;99.90;;;;;;5093681;28;20175;-69
2021/01/26 05:08:31;;;;;;;14.80;7.10;;;3.10;1.00;;;;;;5092864;28;20282;-69
2021/01/26 05:11:11;;;;;;;15.32;7.28;;;3.10;1.00;;;;;;5093871;28;20179;-67
2021/01/26 05:13:41;;;;;;;16.65;6.53;;;3.10;99.90;;;;;;5094101;28;20179;-68
2021/01/26 05:16:10;;;;;;;12.32;6.65;;;3.10;99.90;;;;;;5093996;28;20218;-68
2021/01/26 05:18:43;;;;;;;15.65;7.07;;;3.10;99.90;;;;;;5094198;28;20593;-68
2021/01/26 05:21:32;;;;;;;14.07;6.50;;;3.10;99.90;;;;;;5093709;28;20562;-67
2021/01/26 05:24:12;;;;;;;10.85;6.55;;;3.30;1.00;;;;;;5093667;28;20252;-67
2021/01/26 05:26:37;;;;;;;7.93;4.25;;;3.10;99.90;;;;;;5094195;28;20652;-68
2021/01/26 05:29:03;;;;;;;19.30;9.23;;;3.00;1.00;;;;;;5093591;28;20233;-68
2021/01/26 05:31:29;;;;;;;10.60;7.33;;;3.00;99.90;;;;;;5093745;28;20721;-68
2021/01/26 05:34:05;;;;;;;14.63;7.38;;;3.20;23.00;;;;;;5092418;28;20547;-68
2021/01/26 05:36:30;;;;;;;15.25;7.18;;;3.20;99.90;;;;;;5093839;28;20172;-68
2021/01/26 05:38:56;;;;;;;11.93;7.20;;;3.10;1.00;;;;;;5093536;28;20250;-68
2021/01/26 05:41:22;;;;;;;16.60;7.27;;;3.00;99.90;;;;;;5093327;28;20791;-68
2021/01/26 05:43:50;;;;;;;11.00;6.90;;;3.00;99.90;;;;;;5093355;28;20176;-68
2021/01/26 05:46:39;;;;;;;12.45;6.75;;;2.90;1.00;;;;;;5093329;28;20216;-68
2021/01/26 05:49:05;;;;;;;13.43;5.65;;;3.10;1.00;;;;;;5093453;28;20604;-68
2021/01/26 05:51:31;;;;;;;11.43;4.67;;;3.10;21.30;;;;;;5093121;28;20241;-67
2021/01/26 05:54:00;;;;;;;8.73;5.85;;;3.00;1.00;;;;;;5093139;28;20258;-68
2021/01/26 05:56:28;;;;;;;11.65;5.15;;;3.00;99.90;;;;;;5093312;28;20255;-68
2021/01/26 05:58:53;;;;;;;17.23;6.03;;;3.00;54.40;;;;;;5093296;28;20179;-67
2021/01/26 06:01:22;;;;;;;8.53;4.70;;;3.00;51.90;;;;;;5092922;28;20191;-68
2021/01/26 06:04:09;;;;;;;8.23;6.18;;;2.80;62.00;;;;;;5093228;28;20202;-68
2021/01/26 06:06:59;;;;;;;12.88;5.78;;;2.90;99.90;;;;;;5092982;28;20166;-68
2021/01/26 06:09:30;;;;;;;10.07;5.65;;;3.00;1.00;;;;;;5093283;28;20180;-68
2021/01/26 06:12:23;;;;;;;14.70;7.20;;;3.00;99.90;;;;;;5093106;28;20510;-68
2021/01/26 06:14:54;;;;;;;16.52;7.45;;;3.00;99.90;;;;;;5092712;28;20250;-68
2021/01/26 06:17:23;;;;;;;9.80;5.93;;;3.00;99.90;;;;;;5092992;28;20509;-67
2021/01/26 06:20:16;;;;;;;12.73;7.68;;;3.10;1.00;;;;;;5092498;28;20191;-67
2021/01/26 06:22:42;;;;;;;14.18;6.75;;;3.10;99.90;;;;;;5092754;28;20159;-68
2021/01/26 06:25:14;;;;;;;11.68;6.25;;;3.00;1.00;;;;;;5092924;28;20355;-68
2021/01/26 06:27:46;;;;;;;24.77;7.72;;;3.00;99.90;;;;;;5092937;28;20243;-68
2021/01/26 06:30:24;;;;;;;19.42;6.70;;;3.00;1.00;;;;;;5092930;28;20698;-69
2021/01/26 06:33:10;;;;;;;13.52;6.90;;;2.90;1.00;;;;;;5093123;28;20166;-68
2021/01/26 06:35:44;;;;;;;16.38;7.70;;;3.00;99.90;;;;;;5092388;28;20569;-67
2021/01/26 06:38:48;;;;;;;16.48;6.35;;;2.90;66.10;;;;;;5092530;28;20209;-68
2021/01/26 06:41:32;;;;;;;16.20;6.45;;;2.80;99.90;;;;;;5074877;28;20276;-69
2021/01/26 06:44:12;;;;;;;8.70;4.72;;;2.90;99.90;;;;;;5093101;28;20187;-68
2021/01/26 06:47:15;;;;;;;13.90;7.47;;;2.80;99.90;;;;;;5092384;28;20151;-69
2021/01/26 06:49:54;;;;;;;20.23;8.45;;;3.00;99.90;;;;;;5092132;28;20662;-68
2021/01/26 06:52:34;;;;;;;12.85;6.70;;;2.80;1.00;;;;;;5092665;28;20152;-68
2021/01/26 06:55:17;;;;;;;16.08;6.45;;;2.90;1.00;;;;;;5092539;28;20564;-68
2021/01/26 06:58:26;;;;;;;13.70;7.43;;;2.90;99.90;;;;;;5092954;28;20159;-69
2021/01/26 07:01:16;;;;;;;9.73;6.03;;;2.80;1.00;;;;;;5091037;28;20198;-67
2021/01/26 07:04:11;;;;;;;11.98;7.18;;;2.90;1.00;;;;;;5092557;28;20221;-65
2021/01/26 07:06:48;;;;;;;15.48;6.90;;;2.90;99.90;;;;;;5092431;28;20271;-68
2021/01/26 07:09:32;;;;;;;12.50;6.93;;;2.80;99.90;;;;;;5092293;28;20280;-69
2021/01/26 07:12:25;;;;;;;9.93;6.85;;;2.90;99.90;;;;;;5092492;28;20175;-69
2021/01/26 07:15:19;;;;;;;11.70;6.25;;;2.90;1.00;;;;;;5092289;28;20140;-68
2021/01/26 07:17:53;;;;;;;9.10;5.82;;;2.90;99.90;;;;;;5092295;28;20235;-69
2021/01/26 07:20:45;;;;;;;14.95;6.72;;;2.90;1.00;;;;;;5092317;28;20278;-69
2021/01/26 07:23:27;;;;;;;12.35;6.55;;;2.90;99.90;;;;;;5092538;28;20289;-68
2021/01/26 07:26:15;;;;;;;11.95;6.53;;;3.10;1.00;;;;;;5092652;28;20179;-69
2021/01/26 07:28:54;;;;;;;14.93;7.55;;;3.20;99.90;;;;;;5092728;28;20175;-68
2021/01/26 07:31:22;;;;;;;16.33;7.47;;;3.00;1.00;;;;;;5092282;28;20252;-69
2021/01/26 07:33:58;;;;;;;8.75;7.22;;;3.00;1.00;;;;;;5095998;28;20159;-68
2021/01/26 07:36:35;;;;;;;11.77;5.15;;;2.90;1.00;;;;;;5095825;28;20588;-69
2021/01/26 07:39:31;;;;;;;11.00;6.95;;;2.80;1.00;;;;;;5096015;28;20166;-67
2021/01/26 07:42:26;;;;;;;17.02;7.35;;;2.90;99.90;;;;;;5095993;28;20182;-68
2021/01/26 07:45:08;;;;;;;12.85;6.65;;;3.10;99.90;;;;;;5091221;28;20175;-68
2021/01/26 07:47:41;;;;;;;12.80;6.93;;;3.00;99.90;;;;;;5095392;28;20171;-69
2021/01/26 07:50:23;;;;;;;12.73;7.68;;;2.90;99.90;;;;;;5095758;28;20236;-69
2021/01/26 07:52:54;;;;;;;11.95;7.05;;;3.00;53.10;;;;;;5095353;28;20187;-69
2021/01/26 07:55:28;;;;;;;18.90;6.65;;;2.80;1.00;;;;;;5095514;28;20152;-69
2021/01/26 07:58:10;;;;;;;13.00;7.88;;;2.80;1.00;;;;;;5095645;28;20170;-69
2021/01/26 08:00:50;;;;;;;12.75;7.03;;;2.80;99.90;;;;;;5093983;28;20726;-69
2021/01/26 08:03:21;;;;;;;26.67;8.68;;;2.80;99.90;;;;;;5095344;28;20160;-69
2021/01/26 08:05:50;;;;;;;17.73;7.82;;;3.00;1.00;;;;;;5095357;28;20175;-69
2021/01/26 08:08:21;;;;;;;13.07;6.15;;;2.90;1.00;;;;;;5095482;28;20206;-67
2021/01/26 08:11:03;;;;;;;16.90;7.32;;;2.70;99.90;;;;;;5095223;28;20179;-69
2021/01/26 08:13:29;;;;;;;14.20;7.55;;;2.70;1.00;;;;;;5095380;28;20201;-68
2021/01/26 08:15:54;;;;;;;19.50;7.77;;;2.60;1.00;;;;;;5095153;28;20569;-69
2021/01/26 08:18:25;;;;;;;20.83;8.37;;;2.80;1.00;;;;;;5094942;28;20170;-68
2021/01/26 08:20:52;;;;;;;8.80;5.60;;;2.80;99.90;;;;;;5093579;28;20244;-68
2021/01/26 08:23:25;;;;;;;15.43;8.27;;;2.80;66.30;;;;;;5094872;28;20242;-69
2021/01/26 08:25:53;;;;;;;10.80;6.53;;;2.90;99.90;;;;;;5095470;28;20640;-68
2021/01/26 08:28:41;;;;;;;18.52;8.25;;;2.80;99.90;;;;;;5095131;28;20198;-69
2021/01/26 08:31:29;;;;;;;14.10;6.82;;;2.80;1.00;;;;;;5094759;28;20198;-69
2021/01/26 08:34:16;;;;;;;14.68;7.38;;;2.90;99.90;;;;;;5094610;28;20151;-68
2021/01/26 08:36:42;;;;;;;21.33;7.88;;;2.90;99.90;;;;;;5094587;28;20254;-69
2021/01/26 08:39:19;;;;;;;12.37;5.23;;;3.00;70.20;;;;;;5094553;28;20207;-69
2021/01/26 08:41:50;;;;;;;12.05;5.43;;;3.00;1.00;;;;;;5094257;28;20182;-68
2021/01/26 08:44:22;;;;;;;20.13;6.80;;;3.00;99.90;;;;;;5094413;28;20186;-68
2021/01/26 08:46:50;;;;;;;10.52;5.10;;;3.10;1.00;;;;;;5094318;28;20189;-68
2021/01/26 08:49:35;;;;;;;7.95;4.63;;;2.90;99.90;;;;;;5094412;28;20183;-65
2021/01/26 08:52:19;;;;;;;18.08;6.53;;;2.90;99.90;;;;;;5094413;28;20248;-68
2021/01/26 08:54:46;;;;;;;17.15;7.13;;;2.90;99.90;;;;;;5094499;28;20211;-69
2021/01/26 08:57:27;;;;;;;11.07;6.00;;;3.00;99.90;;;;;;5094269;28;20198;-68
2021/01/26 08:59:53;;;;;;;12.15;6.72;;;2.90;99.90;;;;;;5093319;28;20636;-68
2021/01/26 09:02:35;;;;;;;11.73;5.47;;;2.70;99.90;;;;;;5094254;28;20632;-68
2021/01/26 09:05:02;;;;;;;11.48;5.88;;;2.80;1.00;;;;;;5094450;28;20254;-68
2021/01/26 09:07:53;;;;;;;12.82;7.22;;;2.80;1.00;;;;;;5093794;28;20302;-70
2021/01/26 09:10:38;;;;;;;11.63;7.65;;;2.90;1.00;;;;;;5094152;28;20642;-70
2021/01/26 09:13:07;;;;;;;21.45;7.10;;;2.80;1.00;;;;;;5094045;28;20167;-68
2021/01/26 09:15:37;;;;;;;11.25;6.50;;;2.90;1.00;;;;;;5092621;28;20574;-68
2021/01/26 09:18:03;;;;;;;10.60;6.90;;;3.00;1.00;;;;;;5093889;28;20167;-67
2021/01/26 09:20:31;;;;;;;12.82;6.32;;;3.10;1.00;;;;;;5092408;28;20514;-68
2021/01/26 09:23:05;;;;;;;16.02;6.47;;;2.90;1.00;;;;;;5093686;28;20168;-66
2021/01/26 09:25:35;;;;;;;11.50;6.97;;;3.00;1.00;;;;;;5094046;28;20238;-68
2021/01/26 09:28:10;;;;;;;28.10;7.95;;;3.00;99.90;;;;;;5093778;28;20217;-67
2021/01/26 09:30:39;;;;;;;12.68;6.68;;;3.00;1.00;;;;;;5093838;28;20197;-68
2021/01/26 09:33:10;;;;;;;14.25;6.50;;;3.00;99.90;;;;;;5093725;28;20167;-69
2021/01/26 09:35:44;;;;;;;17.23;8.18;;;3.10;99.90;;;;;;5094093;28;20160;-69
2021/01/26 09:38:16;;;;;;;18.60;6.13;;;3.10;1.00;;;;;;5093434;28;20171;-69
2021/01/26 09:40:53;;;;;;;9.73;4.55;;;3.00;29.10;;;;;;5091998;28;20270;-69
2021/01/26 09:43:24;;;;;;;18.77;7.25;;;3.00;1.00;;;;;;5093356;28;20151;-69
2021/01/26 09:46:03;;;;;;;11.15;5.20;;;3.10;1.00;;;;;;5093376;28;20163;-68
2021/01/26 09:48:30;;;;;;;10.77;5.13;;;3.10;1.00;;;;;;5094335;28;20239;-67
2021/01/26 09:51:25;;;;;;;8.48;5.93;;;3.00;1.00;;;;;;5093588;28;20187;-69
2021/01/26 09:54:10;;;;;;;11.63;6.25;;;3.00;55.80;;;;;;5091027;28;20175;-68
2021/01/26 09:56:38;;;;;;;11.00;6.35;;;3.10;99.90;;;;;;5093922;28;20210;-70
2021/01/26 09:59:09;;;;;;;16.50;6.28;;;3.00;99.90;;;;;;5093018;28;20175;-69
2021/01/26 10:01:35;;;;;;;8.13;5.30;;;3.00;99.90;;;;;;5092956;28;20175;-68
2021/01/26 10:04:04;;;;;;;11.10;7.03;;;3.00;1.00;;;;;;5092967;28;20174;-68
2021/01/26 10:06:30;;;;;;;10.82;6.20;;;2.90;99.90;;;;;;5092797;28;20276;-69
2021/01/26 10:09:11;;;;;;;11.52;7.00;;;3.00;99.90;;;;;;5093037;28;20191;-68
2021/01/26 10:11:37;;;;;;;8.98;4.63;;;3.00;99.90;;;;;;5092889;28;20175;-69
2021/01/26 10:14:16;;;;;;;8.30;6.43;;;3.00;1.00;;;;;;5093034;28;20198;-68
2021/01/26 10:16:46;;;;;;;9.82;6.63;;;3.10;1.00;;;;;;5093004;28;20166;-67
2021/01/26 10:19:23;;;;;;;13.05;7.03;;;3.20;99.90;;;;;;5093041;28;20167;-66
2021/01/26 10:21:50;;;;;;;11.27;5.80;;;3.20;99.90;;;;;;5093415;28;20155;-68
2021/01/26 10:24:28;;;;;;;22.98;7.03;;;3.10;1.00;;;;;;5093018;28;20535;-69
2021/01/26 10:27:20;;;;;;;13.35;7.45;;;3.20;26.40;;;;;;5093136;28;20166;-67
2021/01/26 10:29:46;;;;;;;11.25;7.25;;;3.30;15.00;;;;;;5093623;28;20199;-69
2021/01/26 10:32:33;;;;;;;11.70;7.43;;;3.20;99.90;;;;;;5093449;28;20532;-67
2021/01/26 10:34:59;;;;;;;29.60;7.07;;;3.30;28.20;;;;;;5093304;28;20171;-68
2021/01/26 10:37:24;;;;;;;11.45;7.45;;;3.20;16.90;;;;;;5092610;28;20587;-68
2021/01/26 10:40:07;;;;;;;20.27;8.10;;;3.20;99.90;;;;;;5092653;28;20219;-69
2021/01/26 10:42:34;;;;;;;11.65;7.50;;;3.20;65.60;;;;;;5091334;28;20264;-69
2021/01/26 10:44:59;;;;;;;11.07;7.20;;;3.30;99.90;;;;;;5092874;28;20648;-68
2021/01/26 10:47:32;;;;;;;12.17;7.63;;;3.30;99.90;;;;;;5092918;28;20167;-68
2021/01/26 10:50:07;;;;;;;17.30;8.20;;;3.50;99.90;;;;;;5092434;28;20207;-68
2021/01/26 10:52:42;;;;;;;19.63;8.60;;;3.50;99.90;;;;;;5092667;28;20167;-66
2021/01/26 10:55:11;;;;;;;11.23;7.72;;;3.50;1.00;;;;;;5092574;28;20183;-69
2021/01/26 10:57:39;;;;;;;12.75;7.50;;;3.40;99.90;;;;;;5092738;28;20217;-69
2021/01/26 11:00:07;;;;;;;11.70;7.28;;;3.50;1.00;;;;;;5092583;28;20191;-69
2021/01/26 11:02:33;;;;;;;11.23;7.63;;;3.60;1.00;;;;;;5092750;28;20182;-69
2021/01/26 11:04:58;;;;;;;16.73;9.07;;;3.40;99.90;;;;;;5092896;28;20168;-69
2021/01/26 11:07:24;;;;;;;11.50;7.73;;;3.70;1.00;;;;;;5094548;28;20191;-70
2021/01/26 11:09:50;;;;;;;13.57;8.30;;;3.70;99.90;;;;;;5096478;28;20538;-68
2021/01/26 11:12:18;;;;;;;22.77;8.90;;;3.50;99.90;;;;;;5096693;28;20262;-69
2021/01/26 11:14:45;;;;;;;22.02;8.85;;;3.50;1.00;;;;;;5096839;28;20573;-68
2021/01/26 11:17:14;;;;;;;17.80;8.60;;;3.50;63.50;;;;;;5096018;28;20191;-68
2021/01/26 11:19:41;;;;;;;12.02;7.70;;;3.60;1.00;;;;;;5096240;28;20203;-69
2021/01/26 11:22:07;;;;;;;12.25;8.13;;;3.50;1.00;;;;;;5096488;28;20293;-69
2021/01/26 11:24:32;;;;;;;16.40;8.37;;;3.60;99.90;;;;;;5096822;28;20650;-67
2021/01/26 11:26:58;;;;;;;15.50;7.87;;;3.50;1.00;;;;;;5096285;28;20164;-67
2021/01/26 11:29:23;;;;;;;9.63;6.60;;;3.50;99.90;;;;;;5096079;28;20191;-69
2021/01/26 11:31:49;;;;;;;15.33;8.30;;;3.50;99.90;;;;;;5096057;28;20210;-69
2021/01/26 11:34:14;;;;;;;12.03;8.70;;;3.60;1.00;;;;;;5096087;28;20225;-68
2021/01/26 11:36:40;;;;;;;8.33;6.80;;;3.60;99.90;;;;;;5095987;28;20167;-67
2021/01/26 11:39:06;;;;;;;16.03;8.27;;;3.60;99.90;;;;;;5095979;28;20175;-69
2021/01/26 11:41:33;;;;;;;13.68;8.30;;;3.60;1.00;;;;;;5095965;28;20209;-69
2021/01/26 11:43:59;;;;;;;12.93;7.53;;;3.70;99.90;;;;;;5096203;28;20179;-69
2021/01/26 11:46:25;;;;;;;14.70;8.60;;;3.60;1.00;;;;;;5095907;28;20181;-69
2021/01/26 11:48:50;;;;;;;16.90;7.33;;;3.60;99.90;;;;;;5095931;28;20195;-69
2021/01/26 11:51:16;;;;;;;13.30;8.27;;;3.60;1.00;;;;;;5095787;28;20554;-69
2021/01/26 11:53:42;;;;;;;14.50;8.80;;;3.70;99.90;;;;;;5095531;28;20258;-69
2021/01/26 11:56:07;;;;;;;10.70;8.77;;;3.70;99.90;;;;;;5096019;28;20402;-69
2021/01/26 11:58:35;;;;;;;14.30;8.47;;;3.80;1.00;;;;;;5095505;28;20174;-69
2021/01/26 12:01:02;;;;;;;14.50;8.65;;;3.80;1.00;;;;;;5095789;28;20191;-69
2021/01/26 12:03:28;;;;;;;21.63;8.43;;;3.80;1.00;;;;;;5095392;28;20552;-68
2021/01/26 12:05:54;;;;;;;12.73;7.87;;;3.90;99.90;;;;;;5095376;28;20168;-69
2021/01/26 12:08:19;;;;;;;15.90;7.47;;;3.80;98.30;;;;;;5095186;28;20199;-68
2021/01/26 12:10:45;;;;;;;13.70;9.23;;;3.90;1.00;;;;;;5095029;28;20187;-68
2021/01/26 12:13:11;;;;;;;14.47;8.53;;;3.90;1.00;;;;;;5095721;28;20228;-69
2021/01/26 12:15:40;;;;;;;13.70;9.32;;;3.90;1.00;;;;;;5095596;28;20532;-68
2021/01/26 12:18:07;;;;;;;18.17;8.52;;;4.00;99.90;;;;;;5094781;28;20577;-69
2021/01/26 12:20:32;;;;;;;13.02;8.18;;;4.00;99.90;;;;;;5094981;28;20680;-69
2021/01/26 12:22:59;;;;;;;16.20;6.60;;;4.00;13.40;;;;;;5095112;28;20201;-69
2021/01/26 12:25:26;;;;;;;17.83;8.00;;;4.00;1.00;;;;;;5095181;28;20408;-68
2021/01/26 12:27:52;;;;;;;14.45;9.50;;;4.00;1.00;;;;;;5094734;28;20195;-68
2021/01/26 12:30:18;;;;;;;12.50;8.40;;;4.10;1.00;;;;;;5094871;28;20683;-68
2021/01/26 12:32:44;;;;;;;14.17;8.27;;;4.10;1.00;;;;;;5095073;28;20186;-67
2021/01/26 12:35:15;;;;;;;10.43;8.00;;;4.10;1.00;;;;;;5094854;28;20380;-69
2021/01/26 12:37:41;;;;;;;10.18;6.57;;;4.10;99.90;;;;;;5094747;28;20239;-67
2021/01/26 12:40:07;;;;;;;15.47;8.20;;;4.00;1.00;;;;;;5094606;28;20245;-69
2021/01/26 12:42:33;;;;;;;12.38;7.53;;;4.10;99.90;;;;;;5094607;28;20175;-68
2021/01/26 12:44:59;;;;;;;17.97;7.63;;;4.20;1.00;;;;;;5094460;28;20171;-67
2021/01/26 12:47:24;;;;;;;15.20;7.20;;;4.40;99.90;;;;;;5094782;28;20408;-69
2021/01/26 12:49:51;;;;;;;8.90;5.80;;;4.20;99.90;;;;;;5094650;28;20218;-67
2021/01/26 12:52:16;;;;;;;9.15;6.80;;;4.10;99.90;;;;;;5094817;28;20178;-69
2021/01/26 12:54:42;;;;;;;11.60;8.30;;;4.30;99.90;;;;;;5094485;28;20155;-68
2021/01/26 12:57:07;;;;;;;13.10;7.77;;;4.30;99.90;;;;;;5094220;28;20613;-68
2021/01/26 12:59:33;;;;;;;13.73;7.90;;;4.50;81.40;;;;;;5094560;28;20219;-68
2021/01/26 13:02:00;;;;;;;17.80;8.10;;;4.40;71.20;;;;;;5094964;28;20195;-69
2021/01/26 13:04:26;;;;;;;11.70;7.25;;;4.30;52.00;;;;;;5094638;28;20628;-69
2021/01/26 13:06:51;;;;;;;12.47;8.40;;;4.50;1.00;;;;;;5094181;28;20186;-69
2021/01/26 13:09:17;;;;;;;20.70;7.53;;;4.50;1.00;;;;;;5094307;28;20477;-69
2021/01/26 13:11:42;;;;;;;10.50;6.67;;;4.60;1.00;;;;;;5093933;28;20164;-69
2021/01/26 13:14:08;;;;;;;13.27;6.93;;;4.70;1.00;;;;;;5093795;28;20640;-68
2021/01/26 13:16:34;;;;;;;9.63;6.40;;;4.60;1.00;;;;;;5094193;28;20228;-69
2021/01/26 13:19:00;;;;;;;10.93;6.23;;;4.60;1.00;;;;;;5093931;28;20209;-68
2021/01/26 13:21:25;;;;;;;11.73;6.33;;;4.60;1.00;;;;;;5093950;28;20260;-71